sensor_id;sensor_type;location;lat;lon;timestamp;P1;durP1;ratioP1;P2;durP2;ratioP2
72920;SDS011;61064;51.654;5.476;2023-07-09T00:02:17;13.88;;;6.53;;
72920;SDS011;61064;51.654;5.476;2023-07-09T00:04:43;14.67;;;6.90;;
72920;SDS011;61064;51.654;5.476;2023-07-09T00:09:44;13.68;;;7.00;;
72920;SDS011;61064;51.654;5.476;2023-07-09T00:12:13;15.27;;;7.23;;
72920;SDS011;61064;51.654;5.476;2023-07-09T00:14:40;14.65;;;7.60;;
72920;SDS011;61064;51.654;5.476;2023-07-09T00:17:15;14.20;;;7.20;;
72920;SDS011;61064;51.654;5.476;2023-07-09T00:19:46;15.35;;;7.60;;
72920;SDS011;61064;51.654;5.476;2023-07-09T00:22:13;15.88;;;8.30;;
72920;SDS011;61064;51.654;5.476;2023-07-09T00:24:43;16.07;;;8.30;;
72920;SDS011;61064;51.654;5.476;2023-07-09T00:27:10;19.48;;;9.50;;
72920;SDS011;61064;51.654;5.476;2023-07-09T00:29:36;17.92;;;10.10;;
72920;SDS011;61064;51.654;5.476;2023-07-09T00:32:02;16.23;;;9.33;;
72920;SDS011;61064;51.654;5.476;2023-07-09T00:34:27;17.13;;;9.57;;
72920;SDS011;61064;51.654;5.476;2023-07-09T00:36:52;18.33;;;9.52;;
72920;SDS011;61064;51.654;5.476;2023-07-09T00:39:19;18.13;;;9.20;;
72920;SDS011;61064;51.654;5.476;2023-07-09T00:41:47;19.67;;;10.05;;
72920;SDS011;61064;51.654;5.476;2023-07-09T00:44:20;17.35;;;9.45;;
72920;SDS011;61064;51.654;5.476;2023-07-09T00:49:33;19.52;;;7.70;;
72920;SDS011;61064;51.654;5.476;2023-07-09T00:52:02;16.93;;;8.23;;
72920;SDS011;61064;51.654;5.476;2023-07-09T00:54:39;14.52;;;8.07;;
72920;SDS011;61064;51.654;5.476;2023-07-09T00:57:09;15.10;;;8.13;;
72920;SDS011;61064;51.654;5.476;2023-07-09T00:59:37;16.45;;;8.07;;
72920;SDS011;61064;51.654;5.476;2023-07-09T01:02:07;14.85;;;7.90;;
72920;SDS011;61064;51.654;5.476;2023-07-09T01:04:33;18.60;;;8.23;;
72920;SDS011;61064;51.654;5.476;2023-07-09T01:07:04;16.95;;;7.97;;
72920;SDS011;61064;51.654;5.476;2023-07-09T01:09:30;15.52;;;7.63;;
72920;SDS011;61064;51.654;5.476;2023-07-09T01:11:55;14.57;;;7.83;;
72920;SDS011;61064;51.654;5.476;2023-07-09T01:14:26;15.93;;;7.95;;
72920;SDS011;61064;51.654;5.476;2023-07-09T01:16:55;16.90;;;8.48;;
72920;SDS011;61064;51.654;5.476;2023-07-09T01:19:26;17.80;;;10.47;;
72920;SDS011;61064;51.654;5.476;2023-07-09T01:22:05;18.70;;;10.48;;
72920;SDS011;61064;51.654;5.476;2023-07-09T01:27:11;22.93;;;11.10;;
72920;SDS011;61064;51.654;5.476;2023-07-09T01:29:37;21.98;;;11.13;;
72920;SDS011;61064;51.654;5.476;2023-07-09T01:32:03;18.77;;;10.53;;
72920;SDS011;61064;51.654;5.476;2023-07-09T01:34:31;19.15;;;10.90;;
72920;SDS011;61064;51.654;5.476;2023-07-09T01:36:57;20.90;;;11.15;;
72920;SDS011;61064;51.654;5.476;2023-07-09T01:39:23;21.08;;;10.88;;
72920;SDS011;61064;51.654;5.476;2023-07-09T01:41:50;18.73;;;11.43;;
72920;SDS011;61064;51.654;5.476;2023-07-09T01:44:16;22.50;;;11.73;;
72920;SDS011;61064;51.654;5.476;2023-07-09T01:46:41;20.50;;;11.80;;
72920;SDS011;61064;51.654;5.476;2023-07-09T01:49:07;20.15;;;11.93;;
72920;SDS011;61064;51.654;5.476;2023-07-09T01:51:33;22.65;;;11.82;;
72920;SDS011;61064;51.654;5.476;2023-07-09T01:54:01;21.00;;;11.70;;
72920;SDS011;61064;51.654;5.476;2023-07-09T01:56:27;18.83;;;11.07;;
72920;SDS011;61064;51.654;5.476;2023-07-09T01:58:53;19.45;;;11.63;;
72920;SDS011;61064;51.654;5.476;2023-07-09T02:01:29;22.50;;;12.82;;
72920;SDS011;61064;51.654;5.476;2023-07-09T02:03:55;20.20;;;11.47;;
72920;SDS011;61064;51.654;5.476;2023-07-09T02:06:22;22.55;;;12.15;;
72920;SDS011;61064;51.654;5.476;2023-07-09T02:08:49;20.38;;;10.90;;
72920;SDS011;61064;51.654;5.476;2023-07-09T02:11:15;19.90;;;11.33;;
72920;SDS011;61064;51.654;5.476;2023-07-09T02:13:40;20.20;;;11.43;;
72920;SDS011;61064;51.654;5.476;2023-07-09T02:16:06;19.88;;;11.48;;
72920;SDS011;61064;51.654;5.476;2023-07-09T02:18:31;23.43;;;11.67;;
72920;SDS011;61064;51.654;5.476;2023-07-09T02:20:56;19.60;;;11.93;;
72920;SDS011;61064;51.654;5.476;2023-07-09T02:23:25;21.27;;;11.53;;
72920;SDS011;61064;51.654;5.476;2023-07-09T02:25:52;18.73;;;10.43;;
72920;SDS011;61064;51.654;5.476;2023-07-09T02:28:17;18.63;;;11.10;;
72920;SDS011;61064;51.654;5.476;2023-07-09T02:30:43;22.75;;;10.85;;
72920;SDS011;61064;51.654;5.476;2023-07-09T02:33:08;20.17;;;11.53;;
72920;SDS011;61064;51.654;5.476;2023-07-09T02:35:35;20.20;;;12.60;;
72920;SDS011;61064;51.654;5.476;2023-07-09T02:38:01;22.13;;;11.60;;
72920;SDS011;61064;51.654;5.476;2023-07-09T02:40:27;21.40;;;12.52;;
72920;SDS011;61064;51.654;5.476;2023-07-09T02:42:53;20.77;;;12.07;;
72920;SDS011;61064;51.654;5.476;2023-07-09T02:45:21;22.77;;;12.57;;
72920;SDS011;61064;51.654;5.476;2023-07-09T02:47:47;18.63;;;11.48;;
72920;SDS011;61064;51.654;5.476;2023-07-09T02:50:12;21.97;;;12.33;;
72920;SDS011;61064;51.654;5.476;2023-07-09T02:52:37;21.33;;;11.97;;
72920;SDS011;61064;51.654;5.476;2023-07-09T02:55:03;20.13;;;10.88;;
72920;SDS011;61064;51.654;5.476;2023-07-09T02:57:29;21.40;;;11.60;;
72920;SDS011;61064;51.654;5.476;2023-07-09T02:59:54;17.37;;;11.40;;
72920;SDS011;61064;51.654;5.476;2023-07-09T03:02:19;20.77;;;11.57;;
72920;SDS011;61064;51.654;5.476;2023-07-09T03:04:45;18.53;;;11.27;;
72920;SDS011;61064;51.654;5.476;2023-07-09T03:07:10;19.93;;;11.93;;
72920;SDS011;61064;51.654;5.476;2023-07-09T03:09:36;19.53;;;11.40;;
72920;SDS011;61064;51.654;5.476;2023-07-09T03:12:02;22.75;;;12.45;;
72920;SDS011;61064;51.654;5.476;2023-07-09T03:14:27;21.67;;;12.77;;
72920;SDS011;61064;51.654;5.476;2023-07-09T03:16:52;20.10;;;11.67;;
72920;SDS011;61064;51.654;5.476;2023-07-09T03:19:18;20.83;;;11.93;;
72920;SDS011;61064;51.654;5.476;2023-07-09T03:21:44;18.93;;;11.63;;
72920;SDS011;61064;51.654;5.476;2023-07-09T03:24:09;22.70;;;11.73;;
72920;SDS011;61064;51.654;5.476;2023-07-09T03:26:37;20.63;;;11.60;;
72920;SDS011;61064;51.654;5.476;2023-07-09T03:29:03;17.92;;;11.18;;
72920;SDS011;61064;51.654;5.476;2023-07-09T03:31:29;19.00;;;11.97;;
72920;SDS011;61064;51.654;5.476;2023-07-09T03:33:55;19.65;;;11.57;;
72920;SDS011;61064;51.654;5.476;2023-07-09T03:36:22;23.87;;;11.60;;
72920;SDS011;61064;51.654;5.476;2023-07-09T03:38:48;19.38;;;12.00;;
72920;SDS011;61064;51.654;5.476;2023-07-09T03:41:13;18.63;;;11.27;;
72920;SDS011;61064;51.654;5.476;2023-07-09T03:43:39;20.87;;;11.00;;
72920;SDS011;61064;51.654;5.476;2023-07-09T03:46:04;20.83;;;11.53;;
72920;SDS011;61064;51.654;5.476;2023-07-09T03:48:30;21.40;;;12.10;;
72920;SDS011;61064;51.654;5.476;2023-07-09T03:50:55;19.37;;;11.50;;
72920;SDS011;61064;51.654;5.476;2023-07-09T03:53:21;20.87;;;11.87;;
72920;SDS011;61064;51.654;5.476;2023-07-09T03:55:50;19.37;;;11.43;;
72920;SDS011;61064;51.654;5.476;2023-07-09T03:58:17;20.15;;;11.80;;
72920;SDS011;61064;51.654;5.476;2023-07-09T04:00:43;20.83;;;11.87;;
72920;SDS011;61064;51.654;5.476;2023-07-09T04:03:09;19.70;;;11.98;;
72920;SDS011;61064;51.654;5.476;2023-07-09T04:05:45;22.60;;;13.35;;
72920;SDS011;61064;51.654;5.476;2023-07-09T04:08:22;21.73;;;13.38;;
72920;SDS011;61064;51.654;5.476;2023-07-09T04:10:47;22.83;;;12.20;;
72920;SDS011;61064;51.654;5.476;2023-07-09T04:13:12;20.13;;;12.50;;
72920;SDS011;61064;51.654;5.476;2023-07-09T04:15:38;21.90;;;12.30;;
72920;SDS011;61064;51.654;5.476;2023-07-09T04:18:05;22.33;;;12.73;;
72920;SDS011;61064;51.654;5.476;2023-07-09T04:20:30;21.75;;;13.00;;
72920;SDS011;61064;51.654;5.476;2023-07-09T04:23:00;24.27;;;13.43;;
72920;SDS011;61064;51.654;5.476;2023-07-09T04:25:28;21.57;;;13.70;;
72920;SDS011;61064;51.654;5.476;2023-07-09T04:27:53;22.40;;;13.68;;
72920;SDS011;61064;51.654;5.476;2023-07-09T04:30:19;20.80;;;13.57;;
72920;SDS011;61064;51.654;5.476;2023-07-09T04:32:46;20.90;;;14.07;;
72920;SDS011;61064;51.654;5.476;2023-07-09T04:35:13;22.88;;;13.38;;
72920;SDS011;61064;51.654;5.476;2023-07-09T04:37:39;23.00;;;13.73;;
72920;SDS011;61064;51.654;5.476;2023-07-09T04:40:06;23.55;;;14.02;;
72920;SDS011;61064;51.654;5.476;2023-07-09T04:42:35;25.20;;;15.30;;
72920;SDS011;61064;51.654;5.476;2023-07-09T04:45:02;26.27;;;14.60;;
72920;SDS011;61064;51.654;5.476;2023-07-09T04:47:28;23.00;;;15.18;;
72920;SDS011;61064;51.654;5.476;2023-07-09T04:49:54;24.77;;;15.40;;
72920;SDS011;61064;51.654;5.476;2023-07-09T04:52:19;25.17;;;16.05;;
72920;SDS011;61064;51.654;5.476;2023-07-09T04:54:44;27.57;;;16.30;;
72920;SDS011;61064;51.654;5.476;2023-07-09T04:57:11;23.07;;;15.07;;
72920;SDS011;61064;51.654;5.476;2023-07-09T04:59:37;25.02;;;16.88;;
72920;SDS011;61064;51.654;5.476;2023-07-09T05:02:02;29.33;;;16.60;;
72920;SDS011;61064;51.654;5.476;2023-07-09T05:04:28;30.05;;;17.83;;
72920;SDS011;61064;51.654;5.476;2023-07-09T05:06:54;26.23;;;17.17;;
72920;SDS011;61064;51.654;5.476;2023-07-09T05:09:21;27.05;;;17.83;;
72920;SDS011;61064;51.654;5.476;2023-07-09T05:11:48;29.40;;;19.25;;
72920;SDS011;61064;51.654;5.476;2023-07-09T05:14:14;28.27;;;19.40;;
72920;SDS011;61064;51.654;5.476;2023-07-09T05:16:43;28.52;;;19.65;;
72920;SDS011;61064;51.654;5.476;2023-07-09T05:19:08;29.30;;;19.13;;
72920;SDS011;61064;51.654;5.476;2023-07-09T05:21:34;29.52;;;19.42;;
72920;SDS011;61064;51.654;5.476;2023-07-09T05:23:59;29.63;;;18.47;;
72920;SDS011;61064;51.654;5.476;2023-07-09T05:26:25;28.40;;;19.10;;
72920;SDS011;61064;51.654;5.476;2023-07-09T05:28:50;32.27;;;19.53;;
72920;SDS011;61064;51.654;5.476;2023-07-09T05:31:16;29.30;;;18.52;;
72920;SDS011;61064;51.654;5.476;2023-07-09T05:33:41;30.00;;;19.53;;
72920;SDS011;61064;51.654;5.476;2023-07-09T05:36:07;28.00;;;18.50;;
72920;SDS011;61064;51.654;5.476;2023-07-09T05:38:38;28.10;;;19.55;;
72920;SDS011;61064;51.654;5.476;2023-07-09T05:41:06;28.48;;;18.42;;
72920;SDS011;61064;51.654;5.476;2023-07-09T05:43:32;27.08;;;18.70;;
72920;SDS011;61064;51.654;5.476;2023-07-09T05:46:01;29.13;;;18.50;;
72920;SDS011;61064;51.654;5.476;2023-07-09T05:48:28;27.65;;;18.13;;
72920;SDS011;61064;51.654;5.476;2023-07-09T05:50:53;29.60;;;18.30;;
72920;SDS011;61064;51.654;5.476;2023-07-09T05:53:22;30.15;;;18.45;;
72920;SDS011;61064;51.654;5.476;2023-07-09T05:55:48;27.13;;;18.67;;
72920;SDS011;61064;51.654;5.476;2023-07-09T05:58:14;30.47;;;18.20;;
72920;SDS011;61064;51.654;5.476;2023-07-09T06:00:39;27.60;;;17.50;;
72920;SDS011;61064;51.654;5.476;2023-07-09T06:03:06;26.03;;;16.97;;
72920;SDS011;61064;51.654;5.476;2023-07-09T06:05:33;28.50;;;18.25;;
72920;SDS011;61064;51.654;5.476;2023-07-09T06:07:58;29.92;;;18.88;;
72920;SDS011;61064;51.654;5.476;2023-07-09T06:10:24;24.70;;;17.77;;
72920;SDS011;61064;51.654;5.476;2023-07-09T06:12:49;28.90;;;18.20;;
72920;SDS011;61064;51.654;5.476;2023-07-09T06:15:15;28.00;;;18.37;;
72920;SDS011;61064;51.654;5.476;2023-07-09T06:17:40;24.87;;;18.30;;
72920;SDS011;61064;51.654;5.476;2023-07-09T06:20:07;27.98;;;17.30;;
72920;SDS011;61064;51.654;5.476;2023-07-09T06:22:33;26.02;;;17.05;;
72920;SDS011;61064;51.654;5.476;2023-07-09T06:24:58;26.63;;;16.20;;
72920;SDS011;61064;51.654;5.476;2023-07-09T06:27:24;26.30;;;17.77;;
72920;SDS011;61064;51.654;5.476;2023-07-09T06:29:49;23.80;;;16.30;;
72920;SDS011;61064;51.654;5.476;2023-07-09T06:32:14;24.73;;;15.40;;
72920;SDS011;61064;51.654;5.476;2023-07-09T06:34:40;22.33;;;14.77;;
72920;SDS011;61064;51.654;5.476;2023-07-09T06:37:05;25.43;;;15.10;;
72920;SDS011;61064;51.654;5.476;2023-07-09T06:39:31;21.80;;;14.93;;
72920;SDS011;61064;51.654;5.476;2023-07-09T06:41:56;20.65;;;14.07;;
72920;SDS011;61064;51.654;5.476;2023-07-09T06:44:22;21.17;;;13.60;;
72920;SDS011;61064;51.654;5.476;2023-07-09T06:46:47;23.10;;;13.10;;
72920;SDS011;61064;51.654;5.476;2023-07-09T06:49:13;22.08;;;13.77;;
72920;SDS011;61064;51.654;5.476;2023-07-09T06:51:38;19.77;;;13.70;;
72920;SDS011;61064;51.654;5.476;2023-07-09T06:54:04;19.40;;;12.60;;
72920;SDS011;61064;51.654;5.476;2023-07-09T06:56:30;21.20;;;12.17;;
72920;SDS011;61064;51.654;5.476;2023-07-09T06:58:56;22.85;;;13.27;;
72920;SDS011;61064;51.654;5.476;2023-07-09T07:01:22;18.75;;;11.77;;
72920;SDS011;61064;51.654;5.476;2023-07-09T07:03:47;19.17;;;12.27;;
72920;SDS011;61064;51.654;5.476;2023-07-09T07:06:13;20.27;;;11.77;;
72920;SDS011;61064;51.654;5.476;2023-07-09T07:08:38;19.13;;;12.03;;
72920;SDS011;61064;51.654;5.476;2023-07-09T07:11:04;21.05;;;11.75;;
72920;SDS011;61064;51.654;5.476;2023-07-09T07:13:35;22.13;;;11.80;;
72920;SDS011;61064;51.654;5.476;2023-07-09T07:16:05;17.70;;;11.02;;
72920;SDS011;61064;51.654;5.476;2023-07-09T07:18:32;21.15;;;12.15;;
72920;SDS011;61064;51.654;5.476;2023-07-09T07:20:58;17.60;;;11.02;;
72920;SDS011;61064;51.654;5.476;2023-07-09T07:23:24;20.17;;;12.63;;
72920;SDS011;61064;51.654;5.476;2023-07-09T07:25:50;19.90;;;11.77;;
72920;SDS011;61064;51.654;5.476;2023-07-09T07:28:16;21.80;;;12.00;;
72920;SDS011;61064;51.654;5.476;2023-07-09T07:30:42;23.55;;;12.50;;
72920;SDS011;61064;51.654;5.476;2023-07-09T07:33:08;21.83;;;12.50;;
72920;SDS011;61064;51.654;5.476;2023-07-09T07:35:35;21.00;;;12.37;;
72920;SDS011;61064;51.654;5.476;2023-07-09T07:38:01;15.70;;;10.65;;
72920;SDS011;61064;51.654;5.476;2023-07-09T07:40:27;17.63;;;11.05;;
72920;SDS011;61064;51.654;5.476;2023-07-09T07:42:52;16.57;;;9.53;;
72920;SDS011;61064;51.654;5.476;2023-07-09T07:45:18;17.30;;;10.23;;
72920;SDS011;61064;51.654;5.476;2023-07-09T07:47:44;17.85;;;10.50;;
72920;SDS011;61064;51.654;5.476;2023-07-09T07:50:09;16.37;;;11.17;;
72920;SDS011;61064;51.654;5.476;2023-07-09T07:52:38;16.30;;;9.85;;
72920;SDS011;61064;51.654;5.476;2023-07-09T07:55:04;17.05;;;9.80;;
72920;SDS011;61064;51.654;5.476;2023-07-09T07:57:30;19.40;;;10.60;;
72920;SDS011;61064;51.654;5.476;2023-07-09T07:59:55;18.87;;;10.77;;
72920;SDS011;61064;51.654;5.476;2023-07-09T08:02:23;17.53;;;9.70;;
72920;SDS011;61064;51.654;5.476;2023-07-09T08:04:49;14.88;;;8.98;;
72920;SDS011;61064;51.654;5.476;2023-07-09T08:07:16;17.17;;;9.40;;
72920;SDS011;61064;51.654;5.476;2023-07-09T08:09:42;15.07;;;8.75;;
72920;SDS011;61064;51.654;5.476;2023-07-09T08:12:08;13.67;;;7.23;;
72920;SDS011;61064;51.654;5.476;2023-07-09T08:14:36;14.18;;;7.30;;
72920;SDS011;61064;51.654;5.476;2023-07-09T08:17:02;12.87;;;6.60;;
72920;SDS011;61064;51.654;5.476;2023-07-09T08:19:28;12.03;;;6.60;;
72920;SDS011;61064;51.654;5.476;2023-07-09T08:21:56;14.10;;;6.18;;
72920;SDS011;61064;51.654;5.476;2023-07-09T08:24:22;13.10;;;6.57;;
72920;SDS011;61064;51.654;5.476;2023-07-09T08:26:47;11.82;;;6.18;;
72920;SDS011;61064;51.654;5.476;2023-07-09T08:29:13;14.40;;;6.60;;
72920;SDS011;61064;51.654;5.476;2023-07-09T08:31:38;12.73;;;6.43;;
72920;SDS011;61064;51.654;5.476;2023-07-09T08:34:05;11.83;;;6.20;;
72920;SDS011;61064;51.654;5.476;2023-07-09T08:36:32;12.52;;;6.72;;
72920;SDS011;61064;51.654;5.476;2023-07-09T08:38:57;11.53;;;6.37;;
72920;SDS011;61064;51.654;5.476;2023-07-09T08:41:32;11.23;;;6.70;;
72920;SDS011;61064;51.654;5.476;2023-07-09T08:44:29;13.07;;;6.50;;
72920;SDS011;61064;51.654;5.476;2023-07-09T08:47:16;12.77;;;7.00;;
72920;SDS011;61064;51.654;5.476;2023-07-09T08:49:57;13.02;;;7.00;;
72920;SDS011;61064;51.654;5.476;2023-07-09T08:52:28;12.27;;;6.60;;
72920;SDS011;61064;51.654;5.476;2023-07-09T08:54:59;10.82;;;6.38;;
72920;SDS011;61064;51.654;5.476;2023-07-09T08:57:39;13.27;;;6.77;;
72920;SDS011;61064;51.654;5.476;2023-07-09T09:00:17;13.93;;;6.43;;
72920;SDS011;61064;51.654;5.476;2023-07-09T09:02:51;10.75;;;6.30;;
72920;SDS011;61064;51.654;5.476;2023-07-09T09:05:21;12.13;;;6.70;;
72920;SDS011;61064;51.654;5.476;2023-07-09T09:07:56;10.82;;;6.30;;
72920;SDS011;61064;51.654;5.476;2023-07-09T09:10:33;12.17;;;6.37;;
72920;SDS011;61064;51.654;5.476;2023-07-09T09:13:11;12.85;;;6.10;;
72920;SDS011;61064;51.654;5.476;2023-07-09T09:15:39;10.07;;;5.75;;
72920;SDS011;61064;51.654;5.476;2023-07-09T09:18:25;12.80;;;6.13;;
72920;SDS011;61064;51.654;5.476;2023-07-09T09:21:03;10.20;;;5.15;;
72920;SDS011;61064;51.654;5.476;2023-07-09T09:23:40;10.83;;;5.20;;
72920;SDS011;61064;51.654;5.476;2023-07-09T09:26:18;12.25;;;5.57;;
72920;SDS011;61064;51.654;5.476;2023-07-09T09:28:48;10.40;;;5.53;;
72920;SDS011;61064;51.654;5.476;2023-07-09T09:31:14;9.93;;;5.47;;
72920;SDS011;61064;51.654;5.476;2023-07-09T09:33:42;11.25;;;5.70;;
72920;SDS011;61064;51.654;5.476;2023-07-09T09:36:12;10.55;;;5.70;;
72920;SDS011;61064;51.654;5.476;2023-07-09T09:38:42;12.93;;;5.93;;
72920;SDS011;61064;51.654;5.476;2023-07-09T09:41:15;11.33;;;5.30;;
72920;SDS011;61064;51.654;5.476;2023-07-09T09:43:43;9.00;;;4.90;;
72920;SDS011;61064;51.654;5.476;2023-07-09T09:46:15;10.45;;;5.22;;
72920;SDS011;61064;51.654;5.476;2023-07-09T09:48:44;12.50;;;5.07;;
72920;SDS011;61064;51.654;5.476;2023-07-09T09:51:11;9.43;;;4.93;;
72920;SDS011;61064;51.654;5.476;2023-07-09T09:53:38;12.00;;;5.17;;
72920;SDS011;61064;51.654;5.476;2023-07-09T09:56:09;10.02;;;5.00;;
72920;SDS011;61064;51.654;5.476;2023-07-09T09:58:43;10.90;;;5.00;;
72920;SDS011;61064;51.654;5.476;2023-07-09T10:01:16;10.30;;;4.95;;
72920;SDS011;61064;51.654;5.476;2023-07-09T10:03:43;10.17;;;5.20;;
72920;SDS011;61064;51.654;5.476;2023-07-09T10:06:15;11.43;;;5.18;;
72920;SDS011;61064;51.654;5.476;2023-07-09T10:11:29;9.75;;;5.15;;
72920;SDS011;61064;51.654;5.476;2023-07-09T10:17:14;9.97;;;5.20;;
72920;SDS011;61064;51.654;5.476;2023-07-09T10:22:39;11.45;;;5.72;;
72920;SDS011;61064;51.654;5.476;2023-07-09T10:28:19;11.25;;;5.50;;
72920;SDS011;61064;51.654;5.476;2023-07-09T10:39:34;12.20;;;5.97;;
72920;SDS011;61064;51.654;5.476;2023-07-09T10:42:03;10.70;;;5.68;;
72920;SDS011;61064;51.654;5.476;2023-07-09T10:44:36;11.73;;;5.83;;
72920;SDS011;61064;51.654;5.476;2023-07-09T10:47:09;11.40;;;5.20;;
72920;SDS011;61064;51.654;5.476;2023-07-09T10:49:42;10.55;;;5.43;;
72920;SDS011;61064;51.654;5.476;2023-07-09T10:54:52;11.27;;;5.70;;
72920;SDS011;61064;51.654;5.476;2023-07-09T11:00:32;13.80;;;6.10;;
72920;SDS011;61064;51.654;5.476;2023-07-09T11:03:00;11.30;;;5.70;;
72920;SDS011;61064;51.654;5.476;2023-07-09T11:05:30;12.00;;;6.00;;
72920;SDS011;61064;51.654;5.476;2023-07-09T11:08:02;12.45;;;5.53;;
72920;SDS011;61064;51.654;5.476;2023-07-09T11:10:36;10.37;;;6.13;;
72920;SDS011;61064;51.654;5.476;2023-07-09T11:13:20;12.60;;;5.82;;
72920;SDS011;61064;51.654;5.476;2023-07-09T11:15:55;13.40;;;5.80;;
72920;SDS011;61064;51.654;5.476;2023-07-09T11:18:26;10.60;;;5.45;;
72920;SDS011;61064;51.654;5.476;2023-07-09T11:21:07;11.15;;;5.70;;
72920;SDS011;61064;51.654;5.476;2023-07-09T11:23:49;10.63;;;5.43;;
72920;SDS011;61064;51.654;5.476;2023-07-09T11:26:27;12.45;;;5.85;;
72920;SDS011;61064;51.654;5.476;2023-07-09T11:36:35;10.77;;;5.63;;
72920;SDS011;61064;51.654;5.476;2023-07-09T11:39:39;10.25;;;5.68;;
72920;SDS011;61064;51.654;5.476;2023-07-09T11:42:32;11.20;;;5.80;;
72920;SDS011;61064;51.654;5.476;2023-07-09T11:45:16;13.32;;;5.63;;
72920;SDS011;61064;51.654;5.476;2023-07-09T11:50:54;11.37;;;5.87;;
72920;SDS011;61064;51.654;5.476;2023-07-09T11:56:09;11.60;;;5.68;;
72920;SDS011;61064;51.654;5.476;2023-07-09T11:58:35;13.05;;;6.03;;
72920;SDS011;61064;51.654;5.476;2023-07-09T12:01:14;15.13;;;5.97;;
72920;SDS011;61064;51.654;5.476;2023-07-09T12:03:44;12.60;;;5.60;;
72920;SDS011;61064;51.654;5.476;2023-07-09T12:08:40;10.32;;;5.40;;
72920;SDS011;61064;51.654;5.476;2023-07-09T12:11:29;11.02;;;5.80;;
72920;SDS011;61064;51.654;5.476;2023-07-09T12:14:11;11.52;;;5.32;;
72920;SDS011;61064;51.654;5.476;2023-07-09T12:16:40;10.97;;;5.27;;
72920;SDS011;61064;51.654;5.476;2023-07-09T12:19:11;10.52;;;5.70;;
72920;SDS011;61064;51.654;5.476;2023-07-09T12:21:38;10.02;;;5.07;;
72920;SDS011;61064;51.654;5.476;2023-07-09T12:26:54;10.95;;;5.80;;
72920;SDS011;61064;51.654;5.476;2023-07-09T12:29:29;12.10;;;5.77;;
72920;SDS011;61064;51.654;5.476;2023-07-09T12:31:56;9.57;;;5.60;;
72920;SDS011;61064;51.654;5.476;2023-07-09T12:34:23;11.70;;;5.18;;
72920;SDS011;61064;51.654;5.476;2023-07-09T12:36:53;9.63;;;5.18;;
72920;SDS011;61064;51.654;5.476;2023-07-09T12:39:22;12.20;;;5.47;;
72920;SDS011;61064;51.654;5.476;2023-07-09T12:41:50;10.53;;;5.20;;
72920;SDS011;61064;51.654;5.476;2023-07-09T12:44:20;10.05;;;5.00;;
72920;SDS011;61064;51.654;5.476;2023-07-09T12:46:47;11.25;;;5.03;;
72920;SDS011;61064;51.654;5.476;2023-07-09T12:49:24;12.88;;;5.78;;
72920;SDS011;61064;51.654;5.476;2023-07-09T12:51:53;16.70;;;8.65;;
72920;SDS011;61064;51.654;5.476;2023-07-09T12:54:20;18.03;;;10.20;;
72920;SDS011;61064;51.654;5.476;2023-07-09T12:56:46;17.55;;;10.02;;
72920;SDS011;61064;51.654;5.476;2023-07-09T12:59:22;17.13;;;11.45;;
72920;SDS011;61064;51.654;5.476;2023-07-09T13:02:16;17.42;;;10.68;;
72920;SDS011;61064;51.654;5.476;2023-07-09T13:04:47;18.80;;;11.73;;
72920;SDS011;61064;51.654;5.476;2023-07-09T13:12:50;18.65;;;12.43;;
72920;SDS011;61064;51.654;5.476;2023-07-09T13:15:19;17.38;;;10.73;;
72920;SDS011;61064;51.654;5.476;2023-07-09T13:17:47;15.20;;;10.60;;
72920;SDS011;61064;51.654;5.476;2023-07-09T13:20:12;18.55;;;11.23;;
72920;SDS011;61064;51.654;5.476;2023-07-09T13:22:38;19.67;;;10.57;;
72920;SDS011;61064;51.654;5.476;2023-07-09T13:25:04;16.60;;;11.77;;
72920;SDS011;61064;51.654;5.476;2023-07-09T13:27:33;15.57;;;10.23;;
72920;SDS011;61064;51.654;5.476;2023-07-09T13:29:59;15.98;;;9.75;;
72920;SDS011;61064;51.654;5.476;2023-07-09T13:32:24;18.40;;;9.93;;
72920;SDS011;61064;51.654;5.476;2023-07-09T13:34:54;16.75;;;10.52;;
72920;SDS011;61064;51.654;5.476;2023-07-09T13:37:19;15.83;;;10.33;;
72920;SDS011;61064;51.654;5.476;2023-07-09T13:39:45;17.08;;;10.40;;
72920;SDS011;61064;51.654;5.476;2023-07-09T13:42:14;14.30;;;9.73;;
72920;SDS011;61064;51.654;5.476;2023-07-09T13:44:42;18.75;;;10.95;;
72920;SDS011;61064;51.654;5.476;2023-07-09T13:47:12;17.90;;;11.03;;
72920;SDS011;61064;51.654;5.476;2023-07-09T13:49:41;16.75;;;11.38;;
72920;SDS011;61064;51.654;5.476;2023-07-09T13:52:08;16.73;;;11.85;;
72920;SDS011;61064;51.654;5.476;2023-07-09T13:54:44;19.60;;;11.50;;
72920;SDS011;61064;51.654;5.476;2023-07-09T13:57:14;21.42;;;11.52;;
72920;SDS011;61064;51.654;5.476;2023-07-09T13:59:43;17.37;;;10.43;;
72920;SDS011;61064;51.654;5.476;2023-07-09T14:02:28;18.48;;;12.18;;
72920;SDS011;61064;51.654;5.476;2023-07-09T14:05:03;17.38;;;11.65;;
72920;SDS011;61064;51.654;5.476;2023-07-09T14:07:31;17.88;;;11.82;;
72920;SDS011;61064;51.654;5.476;2023-07-09T14:09:58;18.80;;;10.82;;
72920;SDS011;61064;51.654;5.476;2023-07-09T14:12:25;15.13;;;7.83;;
72920;SDS011;61064;51.654;5.476;2023-07-09T14:14:52;11.48;;;5.25;;
72920;SDS011;61064;51.654;5.476;2023-07-09T14:17:18;10.93;;;4.93;;
72920;SDS011;61064;51.654;5.476;2023-07-09T14:19:48;11.57;;;4.65;;
72920;SDS011;61064;51.654;5.476;2023-07-09T14:22:32;12.37;;;4.93;;
72920;SDS011;61064;51.654;5.476;2023-07-09T14:24:59;8.30;;;4.00;;
72920;SDS011;61064;51.654;5.476;2023-07-09T14:27:26;8.73;;;3.85;;
72920;SDS011;61064;51.654;5.476;2023-07-09T14:29:52;8.13;;;3.80;;
72920;SDS011;61064;51.654;5.476;2023-07-09T14:32:35;10.30;;;4.00;;
72920;SDS011;61064;51.654;5.476;2023-07-09T14:35:03;7.97;;;3.70;;
72920;SDS011;61064;51.654;5.476;2023-07-09T14:37:36;9.65;;;3.30;;
72920;SDS011;61064;51.654;5.476;2023-07-09T14:40:02;8.47;;;3.50;;
72920;SDS011;61064;51.654;5.476;2023-07-09T14:42:29;9.13;;;3.35;;
72920;SDS011;61064;51.654;5.476;2023-07-09T14:44:55;7.97;;;3.70;;
72920;SDS011;61064;51.654;5.476;2023-07-09T14:47:21;9.37;;;3.47;;
72920;SDS011;61064;51.654;5.476;2023-07-09T14:49:46;10.77;;;4.17;;
72920;SDS011;61064;51.654;5.476;2023-07-09T14:52:19;9.80;;;3.90;;
72920;SDS011;61064;51.654;5.476;2023-07-09T14:54:48;10.10;;;3.90;;
72920;SDS011;61064;51.654;5.476;2023-07-09T14:57:24;10.65;;;4.10;;
72920;SDS011;61064;51.654;5.476;2023-07-09T14:59:51;11.27;;;4.20;;
72920;SDS011;61064;51.654;5.476;2023-07-09T15:02:27;10.48;;;3.67;;
72920;SDS011;61064;51.654;5.476;2023-07-09T15:04:54;8.82;;;3.70;;
72920;SDS011;61064;51.654;5.476;2023-07-09T15:07:19;8.37;;;3.37;;
72920;SDS011;61064;51.654;5.476;2023-07-09T15:09:45;9.73;;;3.60;;
72920;SDS011;61064;51.654;5.476;2023-07-09T15:12:15;8.50;;;3.40;;
72920;SDS011;61064;51.654;5.476;2023-07-09T15:14:44;9.23;;;3.63;;
72920;SDS011;61064;51.654;5.476;2023-07-09T15:17:10;10.27;;;3.72;;
72920;SDS011;61064;51.654;5.476;2023-07-09T15:19:37;9.53;;;3.40;;
72920;SDS011;61064;51.654;5.476;2023-07-09T15:22:03;10.70;;;4.00;;
72920;SDS011;61064;51.654;5.476;2023-07-09T15:24:34;10.05;;;3.72;;
72920;SDS011;61064;51.654;5.476;2023-07-09T15:27:00;8.77;;;3.80;;
72920;SDS011;61064;51.654;5.476;2023-07-09T15:29:27;11.35;;;4.00;;
72920;SDS011;61064;51.654;5.476;2023-07-09T15:31:54;9.23;;;3.50;;
72920;SDS011;61064;51.654;5.476;2023-07-09T15:34:19;9.80;;;3.90;;
72920;SDS011;61064;51.654;5.476;2023-07-09T15:36:48;11.10;;;3.97;;